Grant, Minnesota
Current Conditions -  °F | °C
As of 6:51 AM on Friday 19 Dec 2014 (Local Time) from K21D Reporting Station
Overcast Overcast  
Wind Chill: 17°   Ceiling: 3500
Heat Index: 23°   Visibility: 10mi
Dew Point: 19°   Wind: 5mph
Humidity: 86%   Direction: 190°S
Pressure: 30.26"   Gusts: NA
Location:  45.051°N, 92.9612°W
Report Text: K21D 191251Z AUTO 19004KT 10SM BKN035 OVC055 M05/M07 A3026 RMK AO2
Loading
Personal Weather Stations






























Interactive Weather Map New forecast layout! Learn more

10-Day Weather Forecast

Advertisements
Track Severe Weather on mobile